sensor_id;sensor_type;location;lat;lon;timestamp;P1;durP1;ratioP1;P2;durP2;ratioP2
67063;SDS011;58476;48.072;11.970;2023-12-29T00:02:22;6.07;;;2.80;;
67063;SDS011;58476;48.072;11.970;2023-12-29T00:04:47;6.72;;;2.58;;
67063;SDS011;58476;48.072;11.970;2023-12-29T00:07:13;4.93;;;2.50;;
67063;SDS011;58476;48.072;11.970;2023-12-29T00:09:38;5.63;;;2.63;;
67063;SDS011;58476;48.072;11.970;2023-12-29T00:12:04;4.53;;;2.40;;
67063;SDS011;58476;48.072;11.970;2023-12-29T00:14:29;6.93;;;2.45;;
67063;SDS011;58476;48.072;11.970;2023-12-29T00:16:54;4.68;;;2.30;;
67063;SDS011;58476;48.072;11.970;2023-12-29T00:19:20;4.80;;;2.65;;
67063;SDS011;58476;48.072;11.970;2023-12-29T00:21:45;4.63;;;2.70;;
67063;SDS011;58476;48.072;11.970;2023-12-29T00:24:10;6.38;;;2.67;;
67063;SDS011;58476;48.072;11.970;2023-12-29T00:26:36;7.40;;;2.80;;
67063;SDS011;58476;48.072;11.970;2023-12-29T00:29:01;3.90;;;2.70;;
67063;SDS011;58476;48.072;11.970;2023-12-29T00:31:26;4.35;;;2.70;;
67063;SDS011;58476;48.072;11.970;2023-12-29T00:33:52;4.50;;;2.58;;
67063;SDS011;58476;48.072;11.970;2023-12-29T00:36:19;7.50;;;2.83;;
67063;SDS011;58476;48.072;11.970;2023-12-29T00:38:44;9.75;;;2.80;;
67063;SDS011;58476;48.072;11.970;2023-12-29T00:41:10;4.72;;;2.67;;
67063;SDS011;58476;48.072;11.970;2023-12-29T00:43:36;5.18;;;3.03;;
67063;SDS011;58476;48.072;11.970;2023-12-29T00:46:04;4.95;;;2.63;;
67063;SDS011;58476;48.072;11.970;2023-12-29T00:48:33;5.63;;;2.60;;
67063;SDS011;58476;48.072;11.970;2023-12-29T00:51:00;3.45;;;2.60;;
67063;SDS011;58476;48.072;11.970;2023-12-29T00:53:26;5.25;;;2.60;;
67063;SDS011;58476;48.072;11.970;2023-12-29T00:55:51;4.15;;;2.58;;
67063;SDS011;58476;48.072;11.970;2023-12-29T00:58:17;5.53;;;2.70;;
67063;SDS011;58476;48.072;11.970;2023-12-29T01:00:42;5.10;;;2.50;;
67063;SDS011;58476;48.072;11.970;2023-12-29T01:03:07;5.78;;;2.55;;
67063;SDS011;58476;48.072;11.970;2023-12-29T01:05:33;4.25;;;2.65;;
67063;SDS011;58476;48.072;11.970;2023-12-29T01:07:58;4.57;;;2.25;;
67063;SDS011;58476;48.072;11.970;2023-12-29T01:10:23;4.13;;;2.33;;
67063;SDS011;58476;48.072;11.970;2023-12-29T01:12:49;4.97;;;2.55;;
67063;SDS011;58476;48.072;11.970;2023-12-29T01:15:14;3.83;;;2.38;;
67063;SDS011;58476;48.072;11.970;2023-12-29T01:17:39;4.22;;;2.40;;
67063;SDS011;58476;48.072;11.970;2023-12-29T01:20:05;4.78;;;2.38;;
67063;SDS011;58476;48.072;11.970;2023-12-29T01:22:31;2.97;;;2.20;;
67063;SDS011;58476;48.072;11.970;2023-12-29T01:24:58;3.78;;;2.50;;
67063;SDS011;58476;48.072;11.970;2023-12-29T01:27:24;4.75;;;2.40;;
67063;SDS011;58476;48.072;11.970;2023-12-29T01:29:49;3.65;;;2.15;;
67063;SDS011;58476;48.072;11.970;2023-12-29T01:32:15;5.55;;;2.15;;
67063;SDS011;58476;48.072;11.970;2023-12-29T01:34:40;3.17;;;2.17;;
67063;SDS011;58476;48.072;11.970;2023-12-29T01:37:06;5.47;;;2.05;;
67063;SDS011;58476;48.072;11.970;2023-12-29T01:39:32;4.32;;;2.10;;
67063;SDS011;58476;48.072;11.970;2023-12-29T01:41:58;4.85;;;2.47;;
67063;SDS011;58476;48.072;11.970;2023-12-29T01:44:24;4.32;;;2.17;;
67063;SDS011;58476;48.072;11.970;2023-12-29T01:46:50;4.18;;;2.15;;
67063;SDS011;58476;48.072;11.970;2023-12-29T01:49:16;3.20;;;2.03;;
67063;SDS011;58476;48.072;11.970;2023-12-29T01:51:42;3.58;;;2.00;;
67063;SDS011;58476;48.072;11.970;2023-12-29T01:54:08;3.50;;;2.00;;
67063;SDS011;58476;48.072;11.970;2023-12-29T01:56:35;2.88;;;2.00;;
67063;SDS011;58476;48.072;11.970;2023-12-29T01:59:01;2.80;;;2.05;;
67063;SDS011;58476;48.072;11.970;2023-12-29T02:01:26;2.22;;;1.80;;
67063;SDS011;58476;48.072;11.970;2023-12-29T02:03:53;2.58;;;2.00;;
67063;SDS011;58476;48.072;11.970;2023-12-29T02:06:18;3.90;;;2.00;;
67063;SDS011;58476;48.072;11.970;2023-12-29T02:08:45;2.25;;;1.80;;
67063;SDS011;58476;48.072;11.970;2023-12-29T02:11:10;2.85;;;1.92;;
67063;SDS011;58476;48.072;11.970;2023-12-29T02:13:36;3.92;;;2.15;;
67063;SDS011;58476;48.072;11.970;2023-12-29T02:16:07;2.78;;;2.10;;
67063;SDS011;58476;48.072;11.970;2023-12-29T02:18:37;2.80;;;2.03;;
67063;SDS011;58476;48.072;11.970;2023-12-29T02:21:04;3.67;;;1.75;;
67063;SDS011;58476;48.072;11.970;2023-12-29T02:23:29;3.45;;;1.98;;
67063;SDS011;58476;48.072;11.970;2023-12-29T02:26:01;3.75;;;1.85;;
67063;SDS011;58476;48.072;11.970;2023-12-29T02:28:30;2.55;;;1.90;;
67063;SDS011;58476;48.072;11.970;2023-12-29T02:31:05;2.78;;;1.90;;
67063;SDS011;58476;48.072;11.970;2023-12-29T02:33:39;3.05;;;1.75;;
67063;SDS011;58476;48.072;11.970;2023-12-29T02:36:06;2.65;;;1.80;;
67063;SDS011;58476;48.072;11.970;2023-12-29T02:38:32;2.67;;;1.88;;
67063;SDS011;58476;48.072;11.970;2023-12-29T02:40:59;2.20;;;1.60;;
67063;SDS011;58476;48.072;11.970;2023-12-29T02:43:24;4.88;;;1.90;;
67063;SDS011;58476;48.072;11.970;2023-12-29T02:45:50;3.05;;;1.70;;
67063;SDS011;58476;48.072;11.970;2023-12-29T02:48:15;3.25;;;1.60;;
67063;SDS011;58476;48.072;11.970;2023-12-29T02:50:41;2.22;;;1.75;;
67063;SDS011;58476;48.072;11.970;2023-12-29T02:53:06;2.47;;;1.60;;
67063;SDS011;58476;48.072;11.970;2023-12-29T02:55:32;2.78;;;1.80;;
67063;SDS011;58476;48.072;11.970;2023-12-29T02:57:57;1.80;;;1.65;;
67063;SDS011;58476;48.072;11.970;2023-12-29T03:00:23;2.47;;;1.50;;
67063;SDS011;58476;48.072;11.970;2023-12-29T03:02:48;3.40;;;1.67;;
67063;SDS011;58476;48.072;11.970;2023-12-29T03:05:14;1.83;;;1.52;;
67063;SDS011;58476;48.072;11.970;2023-12-29T03:07:39;2.50;;;1.80;;
67063;SDS011;58476;48.072;11.970;2023-12-29T03:10:05;2.58;;;1.50;;
67063;SDS011;58476;48.072;11.970;2023-12-29T03:12:30;2.38;;;1.65;;
67063;SDS011;58476;48.072;11.970;2023-12-29T03:14:56;3.28;;;1.60;;
67063;SDS011;58476;48.072;11.970;2023-12-29T03:17:21;2.35;;;1.60;;
67063;SDS011;58476;48.072;11.970;2023-12-29T03:19:47;1.85;;;1.50;;
67063;SDS011;58476;48.072;11.970;2023-12-29T03:22:13;3.17;;;1.80;;
67063;SDS011;58476;48.072;11.970;2023-12-29T03:24:40;1.67;;;1.50;;
67063;SDS011;58476;48.072;11.970;2023-12-29T03:27:06;1.95;;;1.55;;
67063;SDS011;58476;48.072;11.970;2023-12-29T03:29:31;3.08;;;1.65;;
67063;SDS011;58476;48.072;11.970;2023-12-29T03:31:57;2.60;;;1.58;;
67063;SDS011;58476;48.072;11.970;2023-12-29T03:34:22;1.42;;;1.30;;
67063;SDS011;58476;48.072;11.970;2023-12-29T03:37:31;1.92;;;1.40;;
67063;SDS011;58476;48.072;11.970;2023-12-29T03:39:56;2.22;;;1.60;;
67063;SDS011;58476;48.072;11.970;2023-12-29T03:42:21;1.67;;;1.50;;
67063;SDS011;58476;48.072;11.970;2023-12-29T03:44:47;4.53;;;1.65;;
67063;SDS011;58476;48.072;11.970;2023-12-29T03:47:12;2.42;;;1.60;;
67063;SDS011;58476;48.072;11.970;2023-12-29T03:49:37;1.83;;;1.50;;
67063;SDS011;58476;48.072;11.970;2023-12-29T03:52:03;1.52;;;1.40;;
67063;SDS011;58476;48.072;11.970;2023-12-29T03:54:28;1.30;;;1.20;;
67063;SDS011;58476;48.072;11.970;2023-12-29T03:56:53;1.88;;;1.52;;
67063;SDS011;58476;48.072;11.970;2023-12-29T03:59:19;4.38;;;1.50;;
67063;SDS011;58476;48.072;11.970;2023-12-29T04:01:44;3.05;;;1.50;;
67063;SDS011;58476;48.072;11.970;2023-12-29T04:04:09;2.85;;;1.70;;
67063;SDS011;58476;48.072;11.970;2023-12-29T04:06:35;3.17;;;1.40;;
67063;SDS011;58476;48.072;11.970;2023-12-29T04:09:00;1.98;;;1.40;;
67063;SDS011;58476;48.072;11.970;2023-12-29T04:11:25;4.05;;;1.50;;
67063;SDS011;58476;48.072;11.970;2023-12-29T04:13:51;2.72;;;1.60;;
67063;SDS011;58476;48.072;11.970;2023-12-29T04:16:16;2.15;;;1.50;;
67063;SDS011;58476;48.072;11.970;2023-12-29T04:18:41;4.50;;;1.60;;
67063;SDS011;58476;48.072;11.970;2023-12-29T04:21:07;3.05;;;1.40;;
67063;SDS011;58476;48.072;11.970;2023-12-29T04:23:32;1.45;;;1.33;;
67063;SDS011;58476;48.072;11.970;2023-12-29T04:25:57;5.15;;;1.40;;
67063;SDS011;58476;48.072;11.970;2023-12-29T04:28:22;2.53;;;1.48;;
67063;SDS011;58476;48.072;11.970;2023-12-29T04:30:48;2.75;;;1.50;;
67063;SDS011;58476;48.072;11.970;2023-12-29T04:33:13;4.38;;;1.40;;
67063;SDS011;58476;48.072;11.970;2023-12-29T04:35:38;3.28;;;1.50;;
67063;SDS011;58476;48.072;11.970;2023-12-29T04:38:04;3.47;;;1.63;;
67063;SDS011;58476;48.072;11.970;2023-12-29T04:40:29;2.80;;;1.65;;
67063;SDS011;58476;48.072;11.970;2023-12-29T04:42:54;3.53;;;1.40;;
67063;SDS011;58476;48.072;11.970;2023-12-29T04:45:20;3.22;;;1.52;;
67063;SDS011;58476;48.072;11.970;2023-12-29T04:47:45;1.50;;;1.40;;
67063;SDS011;58476;48.072;11.970;2023-12-29T04:50:10;4.65;;;1.52;;
67063;SDS011;58476;48.072;11.970;2023-12-29T04:52:36;4.43;;;1.63;;
67063;SDS011;58476;48.072;11.970;2023-12-29T04:55:01;3.90;;;1.63;;
67063;SDS011;58476;48.072;11.970;2023-12-29T04:57:26;2.92;;;1.50;;
67063;SDS011;58476;48.072;11.970;2023-12-29T04:59:52;1.73;;;1.50;;
67063;SDS011;58476;48.072;11.970;2023-12-29T05:02:17;3.42;;;1.50;;
67063;SDS011;58476;48.072;11.970;2023-12-29T05:04:42;3.63;;;1.50;;
67063;SDS011;58476;48.072;11.970;2023-12-29T05:07:09;1.92;;;1.45;;
67063;SDS011;58476;48.072;11.970;2023-12-29T05:09:34;1.98;;;1.40;;
67063;SDS011;58476;48.072;11.970;2023-12-29T05:12:00;2.13;;;1.40;;
67063;SDS011;58476;48.072;11.970;2023-12-29T05:14:25;3.30;;;1.50;;
67063;SDS011;58476;48.072;11.970;2023-12-29T05:16:50;2.70;;;1.88;;
67063;SDS011;58476;48.072;11.970;2023-12-29T05:19:16;3.70;;;1.50;;
67063;SDS011;58476;48.072;11.970;2023-12-29T05:21:41;1.85;;;1.48;;
67063;SDS011;58476;48.072;11.970;2023-12-29T05:24:07;2.42;;;1.67;;
67063;SDS011;58476;48.072;11.970;2023-12-29T05:26:32;10.52;;;2.10;;
67063;SDS011;58476;48.072;11.970;2023-12-29T05:28:57;2.90;;;1.40;;
67063;SDS011;58476;48.072;11.970;2023-12-29T05:31:22;5.43;;;1.65;;
67063;SDS011;58476;48.072;11.970;2023-12-29T05:33:48;3.45;;;1.67;;
67063;SDS011;58476;48.072;11.970;2023-12-29T05:36:13;2.80;;;1.80;;
67063;SDS011;58476;48.072;11.970;2023-12-29T05:38:39;1.95;;;1.48;;
67063;SDS011;58476;48.072;11.970;2023-12-29T05:41:04;6.43;;;1.63;;
67063;SDS011;58476;48.072;11.970;2023-12-29T05:43:30;4.32;;;1.60;;
67063;SDS011;58476;48.072;11.970;2023-12-29T05:45:57;4.28;;;1.50;;
67063;SDS011;58476;48.072;11.970;2023-12-29T05:48:23;3.42;;;1.55;;
67063;SDS011;58476;48.072;11.970;2023-12-29T05:50:48;2.95;;;2.10;;
67063;SDS011;58476;48.072;11.970;2023-12-29T05:53:14;6.82;;;1.90;;
67063;SDS011;58476;48.072;11.970;2023-12-29T05:55:39;4.15;;;1.88;;
67063;SDS011;58476;48.072;11.970;2023-12-29T05:58:04;3.75;;;1.60;;
67063;SDS011;58476;48.072;11.970;2023-12-29T06:00:29;2.30;;;1.70;;
67063;SDS011;58476;48.072;11.970;2023-12-29T06:02:55;6.53;;;1.75;;
67063;SDS011;58476;48.072;11.970;2023-12-29T06:05:20;8.57;;;1.90;;
67063;SDS011;58476;48.072;11.970;2023-12-29T06:07:45;3.50;;;1.75;;
67063;SDS011;58476;48.072;11.970;2023-12-29T06:10:11;6.85;;;1.90;;
67063;SDS011;58476;48.072;11.970;2023-12-29T06:12:36;6.05;;;2.15;;
67063;SDS011;58476;48.072;11.970;2023-12-29T06:15:01;2.33;;;1.50;;
67063;SDS011;58476;48.072;11.970;2023-12-29T06:17:27;11.10;;;1.80;;
67063;SDS011;58476;48.072;11.970;2023-12-29T06:19:52;4.22;;;1.65;;
67063;SDS011;58476;48.072;11.970;2023-12-29T06:22:18;3.53;;;1.80;;
67063;SDS011;58476;48.072;11.970;2023-12-29T06:24:43;2.85;;;1.70;;
67063;SDS011;58476;48.072;11.970;2023-12-29T06:27:09;7.03;;;2.08;;
67063;SDS011;58476;48.072;11.970;2023-12-29T06:29:34;5.35;;;2.15;;
67063;SDS011;58476;48.072;11.970;2023-12-29T06:32:00;4.15;;;2.03;;
67063;SDS011;58476;48.072;11.970;2023-12-29T06:34:26;2.72;;;1.70;;
67063;SDS011;58476;48.072;11.970;2023-12-29T06:36:51;2.80;;;1.85;;
67063;SDS011;58476;48.072;11.970;2023-12-29T06:39:17;4.07;;;1.90;;
67063;SDS011;58476;48.072;11.970;2023-12-29T06:41:42;5.53;;;2.22;;
67063;SDS011;58476;48.072;11.970;2023-12-29T06:44:07;4.50;;;2.10;;
67063;SDS011;58476;48.072;11.970;2023-12-29T06:46:32;3.35;;;1.95;;
67063;SDS011;58476;48.072;11.970;2023-12-29T06:48:58;4.03;;;2.20;;
67063;SDS011;58476;48.072;11.970;2023-12-29T06:51:23;4.75;;;2.00;;
67063;SDS011;58476;48.072;11.970;2023-12-29T06:53:49;4.53;;;2.08;;
67063;SDS011;58476;48.072;11.970;2023-12-29T06:56:17;3.80;;;2.00;;
67063;SDS011;58476;48.072;11.970;2023-12-29T06:58:43;2.63;;;2.00;;
67063;SDS011;58476;48.072;11.970;2023-12-29T07:01:09;6.93;;;2.20;;
67063;SDS011;58476;48.072;11.970;2023-12-29T07:03:34;6.07;;;2.17;;
67063;SDS011;58476;48.072;11.970;2023-12-29T07:06:02;3.95;;;2.17;;
67063;SDS011;58476;48.072;11.970;2023-12-29T07:08:28;8.30;;;2.20;;
67063;SDS011;58476;48.072;11.970;2023-12-29T07:10:53;7.28;;;2.30;;
67063;SDS011;58476;48.072;11.970;2023-12-29T07:13:19;3.38;;;2.30;;
67063;SDS011;58476;48.072;11.970;2023-12-29T07:15:45;3.10;;;2.00;;
67063;SDS011;58476;48.072;11.970;2023-12-29T07:18:12;4.20;;;2.83;;
67063;SDS011;58476;48.072;11.970;2023-12-29T07:20:37;8.05;;;2.30;;
67063;SDS011;58476;48.072;11.970;2023-12-29T07:23:02;5.60;;;2.40;;
67063;SDS011;58476;48.072;11.970;2023-12-29T07:25:28;3.75;;;2.00;;
67063;SDS011;58476;48.072;11.970;2023-12-29T07:27:53;8.57;;;2.42;;
67063;SDS011;58476;48.072;11.970;2023-12-29T07:30:18;7.70;;;2.20;;
67063;SDS011;58476;48.072;11.970;2023-12-29T07:32:44;6.85;;;2.35;;
67063;SDS011;58476;48.072;11.970;2023-12-29T07:35:09;5.57;;;2.03;;
67063;SDS011;58476;48.072;11.970;2023-12-29T07:37:34;3.53;;;2.35;;
67063;SDS011;58476;48.072;11.970;2023-12-29T07:40:00;7.65;;;2.28;;
67063;SDS011;58476;48.072;11.970;2023-12-29T07:42:25;5.03;;;2.30;;
67063;SDS011;58476;48.072;11.970;2023-12-29T07:44:50;13.27;;;2.53;;
67063;SDS011;58476;48.072;11.970;2023-12-29T07:47:16;4.90;;;2.33;;
67063;SDS011;58476;48.072;11.970;2023-12-29T07:49:41;9.68;;;2.47;;
67063;SDS011;58476;48.072;11.970;2023-12-29T07:52:06;4.57;;;2.30;;
67063;SDS011;58476;48.072;11.970;2023-12-29T07:54:32;6.32;;;2.28;;
67063;SDS011;58476;48.072;11.970;2023-12-29T07:56:57;11.02;;;2.25;;
67063;SDS011;58476;48.072;11.970;2023-12-29T07:59:23;12.60;;;2.40;;
67063;SDS011;58476;48.072;11.970;2023-12-29T08:01:48;8.77;;;2.53;;
67063;SDS011;58476;48.072;11.970;2023-12-29T08:04:13;10.30;;;3.08;;
67063;SDS011;58476;48.072;11.970;2023-12-29T08:06:38;23.35;;;2.90;;
67063;SDS011;58476;48.072;11.970;2023-12-29T08:09:04;13.18;;;2.78;;
67063;SDS011;58476;48.072;11.970;2023-12-29T08:11:29;4.65;;;2.40;;
67063;SDS011;58476;48.072;11.970;2023-12-29T08:13:55;8.40;;;2.92;;
67063;SDS011;58476;48.072;11.970;2023-12-29T08:16:20;11.65;;;2.72;;
67063;SDS011;58476;48.072;11.970;2023-12-29T08:18:46;9.73;;;2.90;;
67063;SDS011;58476;48.072;11.970;2023-12-29T08:21:21;10.63;;;2.47;;
67063;SDS011;58476;48.072;11.970;2023-12-29T08:23:46;9.35;;;2.63;;
67063;SDS011;58476;48.072;11.970;2023-12-29T08:26:13;8.40;;;2.38;;
67063;SDS011;58476;48.072;11.970;2023-12-29T08:28:38;8.18;;;2.60;;
67063;SDS011;58476;48.072;11.970;2023-12-29T08:31:04;9.05;;;2.20;;
67063;SDS011;58476;48.072;11.970;2023-12-29T08:33:29;10.15;;;2.50;;
67063;SDS011;58476;48.072;11.970;2023-12-29T08:35:54;8.20;;;2.30;;
67063;SDS011;58476;48.072;11.970;2023-12-29T08:38:20;13.02;;;2.03;;
67063;SDS011;58476;48.072;11.970;2023-12-29T08:40:45;12.50;;;2.72;;
67063;SDS011;58476;48.072;11.970;2023-12-29T08:43:10;10.07;;;2.25;;
67063;SDS011;58476;48.072;11.970;2023-12-29T08:45:35;9.18;;;2.53;;
67063;SDS011;58476;48.072;11.970;2023-12-29T08:48:01;11.82;;;2.30;;
67063;SDS011;58476;48.072;11.970;2023-12-29T08:50:26;14.35;;;3.63;;
67063;SDS011;58476;48.072;11.970;2023-12-29T08:52:51;13.90;;;2.70;;
67063;SDS011;58476;48.072;11.970;2023-12-29T08:55:17;18.17;;;3.33;;
67063;SDS011;58476;48.072;11.970;2023-12-29T08:57:42;16.88;;;2.55;;
67063;SDS011;58476;48.072;11.970;2023-12-29T09:00:07;11.63;;;2.50;;
67063;SDS011;58476;48.072;11.970;2023-12-29T09:02:33;11.27;;;2.15;;
67063;SDS011;58476;48.072;11.970;2023-12-29T09:04:58;16.90;;;3.55;;
67063;SDS011;58476;48.072;11.970;2023-12-29T09:07:24;9.07;;;2.47;;
67063;SDS011;58476;48.072;11.970;2023-12-29T09:09:49;11.57;;;2.10;;
67063;SDS011;58476;48.072;11.970;2023-12-29T09:12:14;25.05;;;2.78;;
67063;SDS011;58476;48.072;11.970;2023-12-29T09:14:40;14.95;;;2.65;;
67063;SDS011;58476;48.072;11.970;2023-12-29T09:17:05;10.45;;;2.17;;
67063;SDS011;58476;48.072;11.970;2023-12-29T09:19:30;9.35;;;2.25;;
67063;SDS011;58476;48.072;11.970;2023-12-29T09:21:56;8.32;;;2.50;;
67063;SDS011;58476;48.072;11.970;2023-12-29T09:24:21;8.80;;;2.38;;
67063;SDS011;58476;48.072;11.970;2023-12-29T09:26:46;9.30;;;1.90;;
67063;SDS011;58476;48.072;11.970;2023-12-29T09:29:11;13.30;;;2.40;;
67063;SDS011;58476;48.072;11.970;2023-12-29T09:31:37;8.02;;;2.40;;
67063;SDS011;58476;48.072;11.970;2023-12-29T09:34:02;7.40;;;2.28;;
67063;SDS011;58476;48.072;11.970;2023-12-29T09:36:27;5.50;;;1.80;;
67063;SDS011;58476;48.072;11.970;2023-12-29T09:38:53;8.02;;;1.92;;
67063;SDS011;58476;48.072;11.970;2023-12-29T09:41:19;4.60;;;1.90;;
67063;SDS011;58476;48.072;11.970;2023-12-29T09:43:46;7.35;;;2.10;;
67063;SDS011;58476;48.072;11.970;2023-12-29T09:46:19;3.10;;;1.63;;
67063;SDS011;58476;48.072;11.970;2023-12-29T09:48:47;10.23;;;2.10;;
67063;SDS011;58476;48.072;11.970;2023-12-29T09:51:12;4.50;;;1.65;;
67063;SDS011;58476;48.072;11.970;2023-12-29T09:53:38;8.88;;;1.88;;
67063;SDS011;58476;48.072;11.970;2023-12-29T09:56:07;8.00;;;1.92;;
67063;SDS011;58476;48.072;11.970;2023-12-29T09:58:33;11.90;;;2.08;;
67063;SDS011;58476;48.072;11.970;2023-12-29T10:00:59;16.80;;;2.03;;
67063;SDS011;58476;48.072;11.970;2023-12-29T10:03:26;15.20;;;2.15;;
67063;SDS011;58476;48.072;11.970;2023-12-29T10:05:53;11.27;;;2.47;;
67063;SDS011;58476;48.072;11.970;2023-12-29T10:08:19;8.98;;;2.40;;
67063;SDS011;58476;48.072;11.970;2023-12-29T10:10:47;8.65;;;1.90;;
67063;SDS011;58476;48.072;11.970;2023-12-29T10:13:13;10.00;;;2.10;;
67063;SDS011;58476;48.072;11.970;2023-12-29T10:23:49;4.88;;;1.70;;
67063;SDS011;58476;48.072;11.970;2023-12-29T10:26:34;7.35;;;2.15;;
67063;SDS011;58476;48.072;11.970;2023-12-29T10:29:00;12.63;;;1.83;;
67063;SDS011;58476;48.072;11.970;2023-12-29T10:31:25;19.13;;;3.45;;
67063;SDS011;58476;48.072;11.970;2023-12-29T10:33:51;8.02;;;2.35;;
67063;SDS011;58476;48.072;11.970;2023-12-29T10:36:17;12.57;;;1.85;;
67063;SDS011;58476;48.072;11.970;2023-12-29T10:38:42;13.23;;;2.05;;
67063;SDS011;58476;48.072;11.970;2023-12-29T10:41:10;7.80;;;2.33;;
67063;SDS011;58476;48.072;11.970;2023-12-29T10:43:42;11.82;;;2.05;;
67063;SDS011;58476;48.072;11.970;2023-12-29T10:46:10;14.65;;;2.45;;
67063;SDS011;58476;48.072;11.970;2023-12-29T10:48:39;6.70;;;2.15;;
67063;SDS011;58476;48.072;11.970;2023-12-29T10:51:05;11.25;;;2.00;;
67063;SDS011;58476;48.072;11.970;2023-12-29T10:53:34;8.02;;;2.15;;
67063;SDS011;58476;48.072;11.970;2023-12-29T10:56:01;13.37;;;2.63;;
67063;SDS011;58476;48.072;11.970;2023-12-29T10:58:26;13.98;;;2.17;;
67063;SDS011;58476;48.072;11.970;2023-12-29T11:00:53;8.52;;;1.98;;
67063;SDS011;58476;48.072;11.970;2023-12-29T11:03:19;12.07;;;1.70;;
67063;SDS011;58476;48.072;11.970;2023-12-29T11:05:44;4.57;;;1.63;;
67063;SDS011;58476;48.072;11.970;2023-12-29T11:08:16;12.43;;;1.52;;
67063;SDS011;58476;48.072;11.970;2023-12-29T11:10:43;9.40;;;2.17;;
67063;SDS011;58476;48.072;11.970;2023-12-29T11:13:10;10.52;;;1.85;;
67063;SDS011;58476;48.072;11.970;2023-12-29T11:15:36;10.75;;;1.50;;
67063;SDS011;58476;48.072;11.970;2023-12-29T11:18:03;4.15;;;1.30;;
67063;SDS011;58476;48.072;11.970;2023-12-29T11:20:30;6.60;;;1.20;;
67063;SDS011;58476;48.072;11.970;2023-12-29T11:22:56;16.52;;;1.85;;
67063;SDS011;58476;48.072;11.970;2023-12-29T11:25:21;7.57;;;1.50;;
67063;SDS011;58476;48.072;11.970;2023-12-29T11:27:47;8.30;;;1.60;;
67063;SDS011;58476;48.072;11.970;2023-12-29T11:30:13;5.13;;;1.40;;
67063;SDS011;58476;48.072;11.970;2023-12-29T11:32:52;9.65;;;1.40;;
67063;SDS011;58476;48.072;11.970;2023-12-29T11:35:30;5.43;;;1.35;;
67063;SDS011;58476;48.072;11.970;2023-12-29T11:44:01;13.85;;;1.67;;
67063;SDS011;58476;48.072;11.970;2023-12-29T11:48:59;3.30;;;1.58;;
67063;SDS011;58476;48.072;11.970;2023-12-29T11:51:28;4.82;;;1.30;;
67063;SDS011;58476;48.072;11.970;2023-12-29T11:54:06;3.40;;;1.10;;
67063;SDS011;58476;48.072;11.970;2023-12-29T11:59:18;3.00;;;1.17;;
67063;SDS011;58476;48.072;11.970;2023-12-29T12:01:47;2.65;;;1.10;;
67063;SDS011;58476;48.072;11.970;2023-12-29T12:07:00;1.98;;;1.20;;
67063;SDS011;58476;48.072;11.970;2023-12-29T12:09:26;2.22;;;0.93;;
67063;SDS011;58476;48.072;11.970;2023-12-29T12:11:51;1.52;;;0.90;;
67063;SDS011;58476;48.072;11.970;2023-12-29T12:17:26;3.30;;;1.30;;
67063;SDS011;58476;48.072;11.970;2023-12-29T12:19:53;2.65;;;1.00;;
67063;SDS011;58476;48.072;11.970;2023-12-29T12:22:22;2.58;;;1.15;;
67063;SDS011;58476;48.072;11.970;2023-12-29T12:24:50;1.10;;;1.00;;
67063;SDS011;58476;48.072;11.970;2023-12-29T12:27:20;1.77;;;0.88;;
67063;SDS011;58476;48.072;11.970;2023-12-29T12:29:47;2.50;;;0.98;;
67063;SDS011;58476;48.072;11.970;2023-12-29T12:32:15;1.02;;;0.88;;
67063;SDS011;58476;48.072;11.970;2023-12-29T12:34:41;2.22;;;0.90;;
67063;SDS011;58476;48.072;11.970;2023-12-29T12:37:06;1.02;;;0.90;;
67063;SDS011;58476;48.072;11.970;2023-12-29T12:39:41;1.80;;;0.90;;
67063;SDS011;58476;48.072;11.970;2023-12-29T12:42:06;1.42;;;0.82;;
67063;SDS011;58476;48.072;11.970;2023-12-29T12:44:32;0.70;;;0.70;;
67063;SDS011;58476;48.072;11.970;2023-12-29T12:46:58;4.43;;;0.98;;
67063;SDS011;58476;48.072;11.970;2023-12-29T12:49:25;1.10;;;1.00;;
67063;SDS011;58476;48.072;11.970;2023-12-29T12:51:50;1.05;;;0.90;;
67063;SDS011;58476;48.072;11.970;2023-12-29T12:54:18;3.72;;;1.00;;
67063;SDS011;58476;48.072;11.970;2023-12-29T12:56:44;1.52;;;0.90;;
67063;SDS011;58476;48.072;11.970;2023-12-29T12:59:10;0.75;;;0.73;;
67063;SDS011;58476;48.072;11.970;2023-12-29T13:01:37;3.22;;;0.80;;
67063;SDS011;58476;48.072;11.970;2023-12-29T13:04:03;5.93;;;1.38;;
67063;SDS011;58476;48.072;11.970;2023-12-29T13:06:32;2.80;;;1.02;;
67063;SDS011;58476;48.072;11.970;2023-12-29T13:09:00;1.50;;;0.80;;
67063;SDS011;58476;48.072;11.970;2023-12-29T13:11:26;1.38;;;0.93;;
67063;SDS011;58476;48.072;11.970;2023-12-29T13:13:51;2.63;;;1.08;;
67063;SDS011;58476;48.072;11.970;2023-12-29T13:16:17;3.03;;;1.00;;
67063;SDS011;58476;48.072;11.970;2023-12-29T13:18:42;3.00;;;1.45;;
67063;SDS011;58476;48.072;11.970;2023-12-29T13:21:08;1.85;;;0.80;;
67063;SDS011;58476;48.072;11.970;2023-12-29T13:23:33;2.35;;;0.80;;
67063;SDS011;58476;48.072;11.970;2023-12-29T13:25:59;1.02;;;0.82;;
67063;SDS011;58476;48.072;11.970;2023-12-29T13:28:27;0.90;;;0.77;;
67063;SDS011;58476;48.072;11.970;2023-12-29T13:30:52;2.95;;;1.20;;
67063;SDS011;58476;48.072;11.970;2023-12-29T13:36:08;4.50;;;0.82;;
67063;SDS011;58476;48.072;11.970;2023-12-29T13:38:41;0.80;;;0.80;;
67063;SDS011;58476;48.072;11.970;2023-12-29T13:41:09;1.90;;;0.80;;
67063;SDS011;58476;48.072;11.970;2023-12-29T13:43:37;0.80;;;0.80;;
67063;SDS011;58476;48.072;11.970;2023-12-29T13:46:06;2.70;;;1.02;;
67063;SDS011;58476;48.072;11.970;2023-12-29T13:48:31;2.25;;;0.68;;
67063;SDS011;58476;48.072;11.970;2023-12-29T13:50:58;1.50;;;0.90;;
67063;SDS011;58476;48.072;11.970;2023-12-29T13:54:20;5.13;;;1.05;;
67063;SDS011;58476;48.072;11.970;2023-12-29T13:56:52;5.95;;;1.50;;
67063;SDS011;58476;48.072;11.970;2023-12-29T13:59:18;2.83;;;1.00;;
67063;SDS011;58476;48.072;11.970;2023-12-29T14:01:43;5.05;;;1.25;;
67063;SDS011;58476;48.072;11.970;2023-12-29T14:04:10;8.55;;;1.02;;
67063;SDS011;58476;48.072;11.970;2023-12-29T14:07:23;4.93;;;0.90;;
67063;SDS011;58476;48.072;11.970;2023-12-29T14:09:26;3.50;;;1.13;;
67063;SDS011;58476;48.072;11.970;2023-12-29T14:11:51;4.10;;;1.10;;
67063;SDS011;58476;48.072;11.970;2023-12-29T14:14:23;8.90;;;1.60;;
67063;SDS011;58476;48.072;11.970;2023-12-29T14:16:49;19.20;;;3.22;;
67063;SDS011;58476;48.072;11.970;2023-12-29T14:19:15;17.60;;;1.85;;
67063;SDS011;58476;48.072;11.970;2023-12-29T14:21:40;13.10;;;1.88;;
67063;SDS011;58476;48.072;11.970;2023-12-29T14:24:06;17.95;;;1.90;;
67063;SDS011;58476;48.072;11.970;2023-12-29T14:26:39;26.17;;;2.83;;
67063;SDS011;58476;48.072;11.970;2023-12-29T14:29:25;12.00;;;1.42;;
67063;SDS011;58476;48.072;11.970;2023-12-29T14:31:51;7.20;;;1.20;;
67063;SDS011;58476;48.072;11.970;2023-12-29T14:34:17;10.00;;;1.20;;
67063;SDS011;58476;48.072;11.970;2023-12-29T14:36:42;5.45;;;1.17;;
67063;SDS011;58476;48.072;11.970;2023-12-29T14:39:08;3.67;;;1.27;;
67063;SDS011;58476;48.072;11.970;2023-12-29T14:41:34;6.47;;;1.40;;
67063;SDS011;58476;48.072;11.970;2023-12-29T14:44:00;4.78;;;1.10;;
67063;SDS011;58476;48.072;11.970;2023-12-29T14:46:25;10.98;;;1.10;;
67063;SDS011;58476;48.072;11.970;2023-12-29T14:48:51;4.10;;;1.10;;
67063;SDS011;58476;48.072;11.970;2023-12-29T14:51:18;7.22;;;1.25;;
67063;SDS011;58476;48.072;11.970;2023-12-29T14:53:44;5.10;;;1.13;;
67063;SDS011;58476;48.072;11.970;2023-12-29T14:56:10;2.95;;;0.80;;
67063;SDS011;58476;48.072;11.970;2023-12-29T14:58:36;1.33;;;1.10;;